Time;durP1;ratioP1;P1;durP2;ratioP2;P2;SDS_P1;SDS_P2;PMS_P1;PMS_P2;Temp;Humidity;BMP_temperature;BMP_pressure;BME280_temperature;BME280_humidity;BME280_pressure;Samples;Min_cycle;Max_cycle;Signal;HPM_P1;HPM_P2
2023/05/15 00:02:03;;;;;;;5.45;2.97;;;;;;;13.53;88.93;100883.56;4984814;28;20038;-64
2023/05/15 00:04:29;;;;;;;3.10;2.53;;;;;;;13.53;88.49;100888.75;4988628;28;20085;-64
2023/05/15 00:06:54;;;;;;;4.00;2.80;;;;;;;13.50;88.87;100880.19;4983532;28;20038;-64
2023/05/15 00:09:20;;;;;;;4.15;2.67;;;;;;;13.48;88.64;100879.34;4981900;28;20034;-64
2023/05/15 00:11:45;;;;;;;4.25;2.85;;;;;;;13.45;88.74;100869.88;4982880;28;20514;-64
2023/05/15 00:14:10;;;;;;;5.25;2.75;;;;;;;13.44;88.99;100869.91;4985477;28;20036;-65
2023/05/15 00:16:36;;;;;;;5.97;2.95;;;;;;;13.41;89.33;100870.84;4982900;28;20042;-65
2023/05/15 00:19:01;;;;;;;6.57;3.40;;;;;;;13.40;89.48;100869.09;4978391;28;20132;-65
2023/05/15 00:21:26;;;;;;;3.95;2.80;;;;;;;13.35;89.63;100870.94;4982822;28;20030;-65
2023/05/15 00:23:52;;;;;;;5.18;2.75;;;;;;;13.34;90.47;100874.41;4979367;28;20224;-65
2023/05/15 00:26:18;;;;;;;4.93;3.30;;;;;;;13.31;89.93;100869.28;4974838;28;20046;-65
2023/05/15 00:28:44;;;;;;;3.28;2.97;;;;;;;13.29;90.53;100865.84;4985870;28;20076;-64
2023/05/15 00:31:11;;;;;;;5.10;3.55;;;;;;;13.33;90.25;100859.72;4985001;28;20039;-65
2023/05/15 00:33:37;;;;;;;7.13;5.18;;;;;;;13.38;89.30;100857.03;4983764;28;20026;-65
2023/05/15 00:36:03;;;;;;;11.20;6.47;;;;;;;13.47;87.65;100852.50;4984257;28;20076;-65
2023/05/15 00:38:29;;;;;;;9.07;6.40;;;;;;;13.53;86.45;100852.41;4981698;28;20404;-65
2023/05/15 00:40:55;;;;;;;7.85;6.22;;;;;;;13.59;85.86;100848.84;4984121;28;20708;-64
2023/05/15 00:43:22;;;;;;;10.80;7.60;;;;;;;13.63;85.87;100849.63;4979305;28;20058;-64
2023/05/15 00:45:49;;;;;;;10.98;9.32;;;;;;;13.66;85.65;100853.03;4983357;28;20096;-64
2023/05/15 00:48:15;;;;;;;10.10;9.00;;;;;;;13.69;85.63;100847.78;4988478;28;20026;-64
2023/05/15 00:50:41;;;;;;;14.50;9.50;;;;;;;13.75;85.98;100855.44;4981504;28;20531;-64
2023/05/15 00:53:07;;;;;;;18.73;10.65;;;;;;;13.76;86.07;100857.16;4985382;28;20042;-64
2023/05/15 00:55:32;;;;;;;21.05;10.88;;;;;;;13.82;86.38;100858.78;4982937;28;20030;-65
2023/05/15 00:58:00;;;;;;;16.25;10.75;;;;;;;13.77;86.41;100856.25;4980831;28;20041;-64
2023/05/15 01:00:26;;;;;;;20.50;12.57;;;;;;;13.75;86.99;100851.97;4980953;28;20034;-64
2023/05/15 01:02:53;;;;;;;24.50;13.85;;;;;;;13.79;87.88;100853.66;4988177;28;20034;-64
2023/05/15 01:05:18;;;;;;;18.60;12.68;;;;;;;13.81;88.30;100864.84;4982080;28;20161;-65
2023/05/15 01:07:53;;;;;;;17.60;12.27;;;;;;;13.79;88.06;100856.25;4983257;28;20512;-65
2023/05/15 01:10:20;;;;;;;15.93;11.80;;;;;;;13.72;88.46;100860.69;4981850;28;20416;-64
2023/05/15 01:12:46;;;;;;;14.75;11.50;;;;;;;13.68;88.33;100863.41;4983571;28;20053;-64
2023/05/15 01:15:12;;;;;;;15.55;11.25;;;;;;;13.63;88.84;100868.66;4986675;28;20041;-65
2023/05/15 01:17:37;;;;;;;15.23;11.55;;;;;;;13.57;89.43;100864.44;4985122;28;20447;-64
2023/05/15 01:20:08;;;;;;;12.45;11.15;;;;;;;13.51;89.73;100867.16;4983639;28;20059;-64
2023/05/15 01:22:43;;;;;;;16.58;11.27;;;;;;;13.43;90.08;100871.66;4978805;28;20086;-64
2023/05/15 01:25:25;;;;;;;17.25;12.73;;;;;;;13.37;90.74;100869.16;4984374;28;20035;-64
2023/05/15 01:27:57;;;;;;;13.55;11.32;;;;;;;13.31;91.45;100874.47;4979525;28;20153;-64
2023/05/15 01:30:35;;;;;;;17.65;13.02;;;;;;;13.28;92.14;100871.91;4982604;28;20578;-64
2023/05/15 01:33:05;;;;;;;17.02;14.02;;;;;;;13.28;92.79;100877.13;4979254;28;20054;-64
2023/05/15 01:35:38;;;;;;;22.23;15.35;;;;;;;13.28;93.11;100873.66;4977001;28;20743;-64
2023/05/15 01:38:26;;;;;;;19.27;14.52;;;;;;;13.22;93.33;100876.34;4979716;28;20038;-64
2023/05/15 01:41:00;;;;;;;20.75;15.85;;;;;;;13.23;93.87;100870.28;4980133;28;20149;-64
2023/05/15 01:43:28;;;;;;;29.08;18.00;;;;;;;13.26;94.50;100867.66;4975719;28;20038;-64
2023/05/15 01:45:56;;;;;;;23.45;16.88;;;;;;;13.25;94.88;100863.31;4978043;28;20046;-64
2023/05/15 01:48:21;;;;;;;30.48;19.02;;;;;;;13.32;95.19;100864.94;4978769;28;20033;-64
2023/05/15 01:50:50;;;;;;;28.02;18.35;;;;;;;13.33;95.24;100861.44;4978018;28;20042;-65
2023/05/15 01:53:17;;;;;;;24.40;18.50;;;;;;;13.33;95.08;100861.44;4983504;28;20121;-64
2023/05/15 01:55:44;;;;;;;28.35;18.05;;;;;;;13.29;95.43;100855.47;4977975;28;20038;-65
2023/05/15 01:58:10;;;;;;;29.60;19.20;;;;;;;13.29;95.97;100863.25;4976746;28;20042;-64
2023/05/15 02:00:37;;;;;;;28.95;18.65;;;;;;;13.29;95.95;100867.59;4978197;28;20161;-64
2023/05/15 02:03:04;;;;;;;29.25;18.65;;;;;;;13.29;96.04;100865.00;4989223;28;20030;-64
2023/05/15 02:05:31;;;;;;;27.73;18.52;;;;;;;13.27;96.47;100862.41;4984924;28;20038;-65
2023/05/15 02:07:58;;;;;;;26.58;19.58;;;;;;;13.29;96.49;100867.59;4982095;28;20065;-64
2023/05/15 02:10:24;;;;;;;29.50;20.13;;;;;;;13.35;96.53;100868.34;4989600;28;20467;-65
2023/05/15 02:12:51;;;;;;;28.52;19.38;;;;;;;13.41;96.20;100868.22;4984344;28;20041;-65
2023/05/15 02:15:18;;;;;;;40.88;24.55;;;;;;;13.51;97.00;100864.56;4983345;28;20018;-64
2023/05/15 02:17:43;;;;;;;41.20;25.75;;;;;;;13.56;96.84;100865.31;4981862;28;20627;-64
2023/05/15 02:20:09;;;;;;;42.22;24.73;;;;;;;13.61;96.75;100867.00;4986185;28;20048;-64
2023/05/15 02:22:34;;;;;;;34.45;24.15;;;;;;;13.67;96.50;100853.88;4984191;28;20475;-64
2023/05/15 02:25:00;;;;;;;45.58;27.52;;;;;;;13.72;96.76;100847.72;4981462;28;20829;-64
2023/05/15 02:27:37;;;;;;;46.67;27.40;;;;;;;13.76;96.47;100851.97;4980426;28;20038;-64
2023/05/15 02:30:15;;;;;;;49.42;28.02;;;;;;;13.79;96.69;100854.50;4986422;28;20424;-64
2023/05/15 02:33:04;;;;;;;42.05;27.10;;;;;;;13.82;97.08;100848.38;4984666;28;20053;-64
2023/05/15 02:35:32;;;;;;;50.30;29.08;;;;;;;13.84;96.91;100855.25;4983093;28;20590;-64
2023/05/15 02:38:04;;;;;;;53.38;31.10;;;;;;;13.90;97.04;100846.47;4982959;28;20046;-64
2023/05/15 02:40:33;;;;;;;62.83;34.47;;;;;;;13.92;97.14;100852.53;4979268;28;20034;-64
2023/05/15 02:42:59;;;;;;;62.63;34.97;;;;;;;13.93;97.02;100851.63;4980958;28;20049;-64
2023/05/15 02:45:25;;;;;;;62.53;33.42;;;;;;;13.96;97.37;100852.41;4982389;28;20037;-64
2023/05/15 02:47:51;;;;;;;69.13;37.88;;;;;;;14.00;97.03;100855.81;4988222;28;20045;-64
2023/05/15 02:50:17;;;;;;;68.60;38.28;;;;;;;14.03;97.30;100855.75;4986414;28;20542;-64
2023/05/15 02:52:43;;;;;;;76.72;37.38;;;;;;;14.05;96.93;100852.22;4988059;28;20038;-64
2023/05/15 02:55:09;;;;;;;76.63;39.28;;;;;;;14.07;97.07;100858.22;4987863;28;20053;-64
2023/05/15 02:57:34;;;;;;;73.80;38.63;;;;;;;14.10;96.78;100854.72;4984478;28;20033;-65
2023/05/15 03:00:00;;;;;;;67.70;36.88;;;;;;;14.14;96.85;100851.16;4988591;28;20049;-64
2023/05/15 03:02:25;;;;;;;80.15;40.42;;;;;;;14.15;97.12;100857.22;4980741;28;20800;-64
2023/05/15 03:04:51;;;;;;;72.78;38.78;;;;;;;14.17;96.73;100858.91;4984515;28;20042;-63
2023/05/15 03:07:16;;;;;;;73.03;39.90;;;;;;;14.19;96.69;100857.13;4981885;28;20050;-63
2023/05/15 03:09:42;;;;;;;73.75;38.92;;;;;;;14.20;96.69;100850.19;4980640;28;20037;-64
2023/05/15 03:12:09;;;;;;;90.25;41.97;;;;;;;14.22;96.75;100856.22;4979907;28;20033;-64
2023/05/15 03:14:35;;;;;;;71.35;39.33;;;;;;;14.24;96.27;100859.63;4986505;28;20755;-64
2023/05/15 03:17:00;;;;;;;82.47;40.95;;;;;;;14.24;96.35;100864.81;4976995;28;20046;-64
2023/05/15 03:19:25;;;;;;;84.75;41.72;;;;;;;14.24;96.23;100865.69;4983754;28;20048;-64
2023/05/15 03:21:51;;;;;;;85.95;43.47;;;;;;;14.26;96.42;100858.69;4983685;28;20061;-64
2023/05/15 03:24:16;;;;;;;85.13;42.83;;;;;;;14.28;96.38;100863.84;4982755;28;20038;-64
2023/05/15 03:26:43;;;;;;;82.35;43.78;;;;;;;14.29;96.25;100865.56;4978236;28;20062;-64
2023/05/15 03:29:09;;;;;;;89.63;46.58;;;;;;;14.31;95.76;100869.84;4981033;28;20061;-65
2023/05/15 03:31:34;;;;;;;95.63;48.45;;;;;;;14.32;95.61;100861.16;4981624;28;20531;-65
2023/05/15 03:34:00;;;;;;;91.97;45.20;;;;;;;14.32;94.94;100857.72;4986845;28;20113;-66
2023/05/15 03:36:25;;;;;;;88.90;45.50;;;;;;;14.33;94.59;100862.03;4983554;28;20026;-65
2023/05/15 03:38:50;;;;;;;87.78;45.50;;;;;;;14.34;94.38;100858.53;4984143;28;20069;-65
2023/05/15 03:41:16;;;;;;;85.63;44.13;;;;;;;14.33;94.02;100856.84;4988142;28;20038;-65
2023/05/15 03:43:41;;;;;;;84.55;44.10;;;;;;;14.33;93.39;100854.22;4984407;28;20046;-65
2023/05/15 03:46:07;;;;;;;77.43;42.95;;;;;;;14.33;92.97;100856.84;4980886;28;20057;-65
2023/05/15 03:48:32;;;;;;;79.88;42.60;;;;;;;14.35;92.78;100858.50;4987742;28;20045;-65
2023/05/15 03:50:57;;;;;;;77.82;42.38;;;;;;;14.35;92.92;100858.50;4984294;28;20030;-64
2023/05/15 03:53:23;;;;;;;77.80;42.70;;;;;;;14.32;91.91;100860.31;4984623;28;20039;-64
2023/05/15 03:55:48;;;;;;;77.15;43.00;;;;;;;14.32;92.12;100855.97;4983822;28;20043;-65
2023/05/15 03:58:14;;;;;;;76.13;43.20;;;;;;;14.31;92.07;100862.03;4982932;28;20038;-65
2023/05/15 04:00:39;;;;;;;79.35;43.88;;;;;;;14.31;91.41;100858.59;4988642;28;20042;-65
2023/05/15 04:03:05;;;;;;;70.22;40.13;;;;;;;14.34;91.51;100863.72;4987270;28;20637;-65
2023/05/15 04:05:30;;;;;;;79.47;42.63;;;;;;;14.31;91.69;100869.84;4983428;28;20563;-66
2023/05/15 04:07:55;;;;;;;71.95;41.13;;;;;;;14.31;91.63;100859.44;4985765;28;20128;-65
2023/05/15 04:10:21;;;;;;;73.05;42.83;;;;;;;14.31;91.36;100871.59;4983576;28;20044;-65
2023/05/15 04:12:47;;;;;;;76.80;42.40;;;;;;;14.29;91.33;100871.63;4985642;28;20038;-64
2023/05/15 04:15:30;;;;;;;87.13;43.25;;;;;;;14.32;90.88;100870.72;4988150;28;20022;-65
2023/05/15 04:17:55;;;;;;;76.97;41.20;;;;;;;14.31;91.27;100853.38;4984262;28;20832;-65
2023/05/15 04:20:23;;;;;;;69.53;40.50;;;;;;;14.30;91.35;100859.50;4983639;28;20038;-65
2023/05/15 04:22:49;;;;;;;75.20;42.00;;;;;;;14.29;90.72;100866.44;4988738;28;20041;-64
2023/05/15 04:25:15;;;;;;;61.33;36.50;;;;;;;14.29;90.89;100856.03;4986745;28;20034;-64
2023/05/15 04:27:41;;;;;;;73.53;41.05;;;;;;;14.32;90.91;100860.31;4988020;28;20033;-65
2023/05/15 04:30:07;;;;;;;74.07;38.60;;;;;;;14.32;90.79;100858.56;4989925;28;20054;-64
2023/05/15 04:32:34;;;;;;;69.80;40.22;;;;;;;14.30;90.71;100864.69;4985985;28;20038;-64
2023/05/15 04:35:00;;;;;;;67.32;38.53;;;;;;;14.32;90.69;100853.38;4986503;28;20721;-65
2023/05/15 04:37:26;;;;;;;70.82;37.00;;;;;;;14.30;89.85;100854.28;4987014;28;20041;-65
2023/05/15 04:39:51;;;;;;;61.45;36.17;;;;;;;14.30;89.08;100852.56;4989373;28;20037;-65
2023/05/15 04:42:17;;;;;;;53.08;32.30;;;;;;;14.29;88.95;100855.19;4983085;28;20026;-65
2023/05/15 04:44:43;;;;;;;52.10;33.53;;;;;;;14.26;88.59;100850.03;4981182;28;20153;-65
2023/05/15 04:47:09;;;;;;;56.15;33.67;;;;;;;14.25;88.29;100863.91;4981156;28;20392;-65
2023/05/15 04:49:34;;;;;;;54.08;31.25;;;;;;;14.25;88.55;100864.78;4986097;28;20092;-65
2023/05/15 04:52:00;;;;;;;52.17;31.65;;;;;;;14.24;87.97;100862.22;4984252;28;20484;-66
2023/05/15 04:54:25;;;;;;;49.22;33.30;;;;;;;14.22;88.23;100867.44;4988932;28;20034;-65
2023/05/15 04:56:51;;;;;;;51.65;32.65;;;;;;;14.19;88.13;100864.91;4982914;28;20470;-65
2023/05/15 04:59:17;;;;;;;53.22;34.05;;;;;;;14.18;88.14;100871.03;4983921;28;20052;-65
2023/05/15 05:01:42;;;;;;;55.63;34.30;;;;;;;14.18;88.49;100870.16;4980988;28;20038;-65
2023/05/15 05:04:07;;;;;;;55.92;34.00;;;;;;;14.18;88.34;100871.03;4984064;28;20062;-65
2023/05/15 05:06:33;;;;;;;57.13;34.15;;;;;;;14.16;88.65;100871.94;4986348;28;20038;-65
2023/05/15 05:08:58;;;;;;;53.60;35.03;;;;;;;14.20;88.50;100870.97;4984784;28;20545;-64
2023/05/15 05:11:23;;;;;;;59.00;34.20;;;;;;;14.22;88.71;100871.81;4985798;28;20149;-65
2023/05/15 05:13:50;;;;;;;59.55;36.30;;;;;;;14.20;88.23;100877.03;4983717;28;20129;-65
2023/05/15 05:16:15;;;;;;;52.65;33.17;;;;;;;14.20;88.10;100879.63;4978610;28;20128;-65
2023/05/15 05:18:40;;;;;;;61.53;36.83;;;;;;;14.13;87.22;100880.63;4979008;28;20030;-66
2023/05/15 05:21:06;;;;;;;50.63;34.40;;;;;;;14.10;87.45;100884.16;4978781;28;21901;-64
2023/05/15 05:23:31;;;;;;;59.35;35.20;;;;;;;14.09;87.24;100879.88;4970970;28;20451;-65
2023/05/15 05:25:59;;;;;;;65.55;37.60;;;;;;;14.09;87.16;100886.81;4975382;28;20559;-64
2023/05/15 05:28:24;;;;;;;58.00;36.22;;;;;;;14.08;86.97;100885.94;4976604;28;20181;-64
2023/05/15 05:30:50;;;;;;;62.58;37.00;;;;;;;14.08;86.72;100885.94;4974560;28;20557;-64
2023/05/15 05:33:16;;;;;;;61.47;36.35;;;;;;;14.06;86.66;100882.53;4979569;28;20026;-64
2023/05/15 05:35:41;;;;;;;56.38;36.50;;;;;;;14.07;86.79;100888.56;4982144;28;20049;-64
2023/05/15 05:38:06;;;;;;;58.25;36.58;;;;;;;14.08;86.84;100887.69;4983608;28;20649;-64
2023/05/15 05:40:32;;;;;;;62.78;37.47;;;;;;;14.06;86.45;100892.94;4979492;28;20064;-64
2023/05/15 05:42:59;;;;;;;60.55;35.85;;;;;;;14.05;86.23;100891.22;4977841;28;20041;-65
2023/05/15 05:45:25;;;;;;;57.45;36.17;;;;;;;14.00;86.46;100892.19;4975179;28;20105;-64
2023/05/15 05:47:50;;;;;;;59.70;36.63;;;;;;;13.98;86.63;100893.94;4981203;28;20046;-64
2023/05/15 05:50:16;;;;;;;63.17;37.30;;;;;;;14.00;86.84;100898.25;4979398;28;20638;-64
2023/05/15 05:52:41;;;;;;;59.47;36.55;;;;;;;14.03;86.66;100897.34;4983590;28;20043;-64
2023/05/15 05:55:07;;;;;;;56.30;36.88;;;;;;;14.05;86.33;100900.75;4977482;28;20046;-64
2023/05/15 05:57:32;;;;;;;62.15;37.00;;;;;;;14.04;86.13;100893.81;4985283;28;20030;-65
2023/05/15 05:59:58;;;;;;;59.55;35.92;;;;;;;14.05;85.86;100892.94;4979643;28;20173;-65
2023/05/15 06:02:23;;;;;;;55.28;33.83;;;;;;;14.09;85.95;100899.81;4982370;28;20045;-64
2023/05/15 06:04:49;;;;;;;57.28;34.28;;;;;;;14.09;85.92;100892.00;4981331;28;20034;-64
2023/05/15 06:07:14;;;;;;;56.38;34.90;;;;;;;14.15;85.86;100893.63;4981667;28;20097;-65
2023/05/15 06:09:40;;;;;;;52.05;34.03;;;;;;;14.13;85.96;100891.91;4979422;28;20038;-64
2023/05/15 06:12:07;;;;;;;50.65;33.50;;;;;;;14.10;85.83;100893.69;4978770;28;20743;-64
2023/05/15 06:14:32;;;;;;;61.78;38.65;;;;;;;14.09;86.08;100892.88;4973752;28;20073;-65
2023/05/15 06:16:58;;;;;;;65.35;41.55;;;;;;;14.09;86.64;100900.66;4971387;28;20495;-64
2023/05/15 06:19:24;;;;;;;78.22;45.75;;;;;;;14.11;86.15;100895.41;4970239;28;20905;-64
2023/05/15 06:21:50;;;;;;;75.32;45.10;;;;;;;14.10;85.93;100891.09;4979200;28;20045;-64
2023/05/15 06:24:15;;;;;;;78.32;48.15;;;;;;;14.09;85.73;100894.59;4984011;28;20044;-64
2023/05/15 06:26:40;;;;;;;75.20;45.92;;;;;;;14.12;86.12;100894.53;4984116;28;20097;-65
2023/05/15 06:29:06;;;;;;;84.75;49.13;;;;;;;14.11;85.69;100896.28;4974660;28;20042;-64
2023/05/15 06:31:31;;;;;;;81.68;47.17;;;;;;;14.16;85.52;100896.16;4975465;28;20087;-64
2023/05/15 06:33:56;;;;;;;81.03;47.08;;;;;;;14.17;85.56;100891.84;4972867;28;20027;-64
2023/05/15 06:36:22;;;;;;;79.50;45.45;;;;;;;14.21;85.64;100896.97;4985622;28;20117;-64
2023/05/15 06:38:48;;;;;;;76.05;45.83;;;;;;;14.20;85.65;100897.84;4980165;28;20038;-65
2023/05/15 06:41:13;;;;;;;71.40;42.65;;;;;;;14.17;84.88;100895.28;4970949;28;20181;-65
2023/05/15 06:43:39;;;;;;;68.78;41.67;;;;;;;14.13;85.08;100908.41;4971868;28;20161;-64
2023/05/15 06:46:04;;;;;;;61.63;38.05;;;;;;;14.11;84.43;100903.22;4969253;28;20042;-65
2023/05/15 06:48:29;;;;;;;57.67;35.88;;;;;;;14.09;84.53;100916.25;4970515;28;20057;-64
2023/05/15 06:50:55;;;;;;;58.60;37.05;;;;;;;14.00;83.88;100910.38;4972806;28;20435;-65
2023/05/15 06:53:20;;;;;;;56.53;33.83;;;;;;;13.98;83.51;100912.13;4980618;28;20046;-65
2023/05/15 06:55:45;;;;;;;53.88;33.60;;;;;;;13.90;84.08;100914.03;4980172;28;20042;-64
2023/05/15 06:58:11;;;;;;;54.85;35.50;;;;;;;14.01;83.89;100909.47;4981452;28;20044;-65
2023/05/15 07:00:36;;;;;;;55.92;34.55;;;;;;;14.08;84.09;100909.34;4980106;28;20820;-64
2023/05/15 07:03:02;;;;;;;58.88;38.85;;;;;;;14.10;83.66;100911.91;4980724;28;20113;-64
2023/05/15 07:05:27;;;;;;;61.30;38.17;;;;;;;14.14;83.11;100913.56;4978647;28;20404;-65
2023/05/15 07:07:52;;;;;;;70.63;42.10;;;;;;;14.20;83.28;100920.38;4977785;28;20042;-65
2023/05/15 07:10:18;;;;;;;76.15;44.30;;;;;;;14.17;83.03;100910.03;4978957;28;20515;-64
2023/05/15 07:12:43;;;;;;;62.85;40.38;;;;;;;14.13;81.86;100908.41;5015461;28;20041;-65
2023/05/15 07:15:09;;;;;;;64.03;40.85;;;;;;;14.15;81.98;100917.00;4985429;28;20029;-64
2023/05/15 07:17:34;;;;;;;67.38;43.95;;;;;;;14.08;81.91;100924.94;5010357;28;20039;-65
2023/05/15 07:20:00;;;;;;;69.75;43.00;;;;;;;14.01;82.11;100918.13;4986084;28;20070;-65
2023/05/15 07:22:27;;;;;;;76.05;43.38;;;;;;;14.01;82.65;100917.28;4978358;28;20042;-65
2023/05/15 07:24:52;;;;;;;76.88;46.35;;;;;;;14.08;82.46;100924.06;4983476;28;20038;-64
2023/05/15 07:27:18;;;;;;;66.95;42.60;;;;;;;14.15;82.48;100920.47;4988061;28;20096;-64
2023/05/15 07:29:43;;;;;;;68.70;42.00;;;;;;;14.16;81.95;100919.56;4978573;28;20049;-64
2023/05/15 07:32:09;;;;;;;69.72;39.88;;;;;;;14.22;81.79;100918.63;4985394;28;20042;-64
2023/05/15 07:34:34;;;;;;;70.20;41.28;;;;;;;14.21;81.95;100922.94;4979196;28;20045;-64
2023/05/15 07:36:59;;;;;;;69.22;43.10;;;;;;;14.22;82.02;100929.00;4980405;28;20042;-64
2023/05/15 07:39:25;;;;;;;69.95;41.58;;;;;;;14.15;81.77;100917.88;4981556;28;20101;-64
2023/05/15 07:41:50;;;;;;;69.13;41.72;;;;;;;14.17;81.84;100929.09;4981157;28;20049;-64
2023/05/15 07:44:15;;;;;;;67.93;41.08;;;;;;;14.24;82.24;100935.88;4980062;28;20042;-65
2023/05/15 07:46:41;;;;;;;64.28;40.13;;;;;;;14.16;81.73;100936.94;4974021;28;20554;-65
2023/05/15 07:49:06;;;;;;;59.88;37.80;;;;;;;14.10;82.79;100933.56;4978633;28;20043;-64
2023/05/15 07:51:31;;;;;;;60.70;38.40;;;;;;;14.00;82.18;100932.03;4982737;28;20468;-65
2023/05/15 07:53:57;;;;;;;65.18;39.00;;;;;;;13.93;82.10;100934.78;4982153;28;20038;-65
2023/05/15 07:56:22;;;;;;;63.55;39.40;;;;;;;13.89;82.20;100933.97;5007258;28;20041;-65
2023/05/15 07:58:48;;;;;;;64.07;39.47;;;;;;;13.88;82.64;100932.28;4982582;28;20652;-65
2023/05/15 08:01:13;;;;;;;70.05;39.63;;;;;;;13.93;82.45;100933.03;4986117;28;20034;-64
2023/05/15 08:03:38;;;;;;;66.15;38.85;;;;;;;13.97;82.54;100928.63;4981190;28;20084;-65
2023/05/15 08:06:04;;;;;;;65.90;39.17;;;;;;;14.04;82.61;100931.06;4981184;28;20030;-64
2023/05/15 08:08:29;;;;;;;58.10;37.13;;;;;;;14.15;81.98;100924.81;5005610;28;20530;-64
2023/05/15 08:10:55;;;;;;;70.03;40.22;;;;;;;14.15;81.74;100927.41;4981860;28;20069;-64
2023/05/15 08:13:20;;;;;;;62.25;40.05;;;;;;;14.20;81.83;100931.63;5010090;28;20540;-63
2023/05/15 08:15:45;;;;;;;65.30;37.90;;;;;;;14.23;81.75;100928.97;4984109;28;20056;-65
2023/05/15 08:18:11;;;;;;;61.35;38.75;;;;;;;14.36;81.84;100935.63;4980963;28;20037;-64
2023/05/15 08:20:37;;;;;;;59.80;37.75;;;;;;;14.44;80.74;100927.69;4982084;28;20626;-64
2023/05/15 08:23:02;;;;;;;63.83;38.42;;;;;;;14.47;80.48;100931.09;4977627;28;20042;-65
2023/05/15 08:25:28;;;;;;;62.28;39.55;;;;;;;14.49;80.74;100931.91;4978245;28;20471;-65
2023/05/15 08:27:53;;;;;;;76.18;44.80;;;;;;;14.45;79.81;100926.81;4980268;28;20121;-64
2023/05/15 08:30:19;;;;;;;67.28;42.47;;;;;;;14.44;80.32;100925.94;4978494;28;20042;-64
2023/05/15 08:32:45;;;;;;;67.25;42.05;;;;;;;14.46;79.82;100928.50;4981463;28;20050;-64
2023/05/15 08:35:10;;;;;;;69.90;41.70;;;;;;;14.45;79.69;100929.41;4979358;28;20040;-64
2023/05/15 08:37:36;;;;;;;62.75;41.95;;;;;;;14.48;79.74;100931.94;4971709;28;20483;-64
2023/05/15 08:40:04;;;;;;;71.65;42.60;;;;;;;14.44;80.28;100936.34;4983242;28;20180;-64
2023/05/15 08:42:38;;;;;;;64.85;41.13;;;;;;;14.52;80.08;100926.63;4976315;28;20031;-64
2023/05/15 08:45:06;;;;;;;68.97;41.97;;;;;;;14.60;79.01;100916.91;4976361;28;20034;-65
2023/05/15 08:47:37;;;;;;;68.20;42.10;;;;;;;14.67;77.78;100904.63;4981305;28;20122;-64
2023/05/15 08:50:14;;;;;;;74.13;42.47;;;;;;;14.75;77.39;100904.47;4980006;28;20034;-62
2023/05/15 08:52:45;;;;;;;73.80;43.08;;;;;;;14.83;76.91;100903.38;4977772;28;20073;-61
2023/05/15 08:55:12;;;;;;;69.93;42.75;;;;;;;14.93;76.57;100904.03;4973141;28;20133;-62
2023/05/15 08:57:38;;;;;;;66.53;41.42;;;;;;;15.09;76.67;100908.81;4983888;28;20381;-62
2023/05/15 09:00:07;;;;;;;70.80;42.88;;;;;;;15.14;75.67;100906.94;4985792;28;20070;-62
2023/05/15 09:02:36;;;;;;;64.30;40.22;;;;;;;15.13;75.18;100899.19;4978737;28;20031;-62
2023/05/15 09:05:02;;;;;;;61.58;40.17;;;;;;;15.15;75.35;100900.84;4978246;28;20030;-61
2023/05/15 09:07:30;;;;;;;67.53;43.45;;;;;;;15.21;74.34;100894.63;4980732;28;20042;-62
2023/05/15 09:09:56;;;;;;;60.25;39.55;;;;;;;15.37;74.37;100893.38;4981530;28;20049;-62
2023/05/15 09:12:24;;;;;;;59.65;39.40;;;;;;;15.54;73.56;100890.31;4972476;28;20052;-62
2023/05/15 09:14:49;;;;;;;59.45;40.33;;;;;;;15.49;73.44;100884.38;4981615;28;20043;-61
2023/05/15 09:17:15;;;;;;;62.97;40.15;;;;;;;15.62;72.99;100883.13;4978974;28;20053;-62
2023/05/15 09:19:41;;;;;;;63.22;39.60;;;;;;;15.85;72.66;100879.94;4978571;28;20670;-62
2023/05/15 09:22:22;;;;;;;58.25;40.00;;;;;;;16.06;72.27;100879.31;4982596;28;20089;-63
2023/05/15 09:24:51;;;;;;;57.25;39.50;;;;;;;16.28;71.13;100869.97;4978476;28;20601;-62
2023/05/15 09:27:17;;;;;;;55.92;39.40;;;;;;;16.45;69.36;100841.59;4976793;28;20034;-62
2023/05/15 09:29:42;;;;;;;59.47;38.58;;;;;;;16.71;69.50;100852.06;4975091;28;20538;-62
2023/05/15 09:32:09;;;;;;;58.35;39.00;;;;;;;16.82;67.86;100821.31;4978875;28;20034;-63
2023/05/15 09:34:37;;;;;;;58.40;40.35;;;;;;;16.94;67.93;100825.25;4979097;28;20166;-62
2023/05/15 09:37:05;;;;;;;56.28;38.90;;;;;;;16.81;67.95;100824.81;4981422;28;20095;-63
2023/05/15 09:39:31;;;;;;;63.40;41.35;;;;;;;16.61;68.27;100842.84;4977807;28;20041;-64
2023/05/15 09:42:05;;;;;;;58.20;40.42;;;;;;;16.74;67.40;100828.47;4985745;28;20038;-62
2023/05/15 09:44:31;;;;;;;61.40;41.47;;;;;;;16.63;67.98;100840.16;4972560;28;20041;-62
2023/05/15 09:46:57;;;;;;;58.28;40.17;;;;;;;16.37;69.20;100861.88;4983628;28;20050;-62
2023/05/15 09:49:22;;;;;;;59.10;41.15;;;;;;;16.28;69.49;100869.97;4975922;28;20038;-62
2023/05/15 09:51:49;;;;;;;61.78;41.55;;;;;;;16.33;69.63;100863.69;4978317;28;20049;-62
2023/05/15 09:54:16;;;;;;;61.72;40.53;;;;;;;16.38;68.49;100839.25;4980940;28;20404;-62
2023/05/15 09:56:46;;;;;;;61.67;42.50;;;;;;;16.48;68.05;100833.69;4976668;28;20148;-62
2023/05/15 09:59:20;;;;;;;62.13;40.53;;;;;;;16.65;68.04;100828.75;4978419;28;20045;-63
2023/05/15 10:01:48;;;;;;;58.13;39.20;;;;;;;16.99;68.53;100830.31;4980048;28;20038;-62
2023/05/15 10:04:14;;;;;;;61.38;40.42;;;;;;;17.23;67.26;100814.66;4982741;28;20049;-63
2023/05/15 10:06:41;;;;;;;57.22;40.17;;;;;;;17.15;67.08;100816.69;4981643;28;20046;-62
2023/05/15 10:09:08;;;;;;;54.65;39.50;;;;;;;17.50;66.15;100799.78;4978102;28;20042;-63
2023/05/15 10:11:35;;;;;;;56.05;38.42;;;;;;;17.74;66.67;100804.09;4980180;28;20105;-62
2023/05/15 10:14:03;;;;;;;60.85;40.33;;;;;;;17.46;65.02;100782.47;4981857;28;20104;-62
2023/05/15 10:16:32;;;;;;;55.70;38.42;;;;;;;17.77;65.25;100787.44;4977655;28;20510;-62
2023/05/15 10:19:02;;;;;;;56.92;39.63;;;;;;;17.77;64.13;100758.69;4975212;28;20034;-62
2023/05/15 10:21:30;;;;;;;55.67;40.92;;;;;;;17.61;65.43;100796.75;4973945;28;20053;-63
2023/05/15 10:23:58;;;;;;;56.70;41.85;;;;;;;17.42;65.40;100784.34;4973268;28;20042;-62
2023/05/15 10:26:32;;;;;;;52.53;38.17;;;;;;;17.64;64.93;100770.50;4973764;28;20042;-62
2023/05/15 10:28:59;;;;;;;58.42;41.03;;;;;;;17.55;65.35;100770.84;4983820;28;20056;-63
2023/05/15 10:31:25;;;;;;;56.45;40.60;;;;;;;17.44;66.46;100797.38;4978459;28;20491;-63
2023/05/15 10:33:52;;;;;;;52.58;38.63;;;;;;;17.72;65.07;100761.47;4980226;28;20523;-63
2023/05/15 10:36:19;;;;;;;50.33;36.72;;;;;;;17.88;63.87;100739.09;4979873;28;20510;-63
2023/05/15 10:38:46;;;;;;;52.53;36.95;;;;;;;18.04;63.95;100741.97;4978398;28;20049;-62
2023/05/15 10:41:12;;;;;;;44.70;33.40;;;;;;;18.21;63.94;100738.69;4979235;28;20096;-62
2023/05/15 10:43:40;;;;;;;41.13;27.27;;;;;;;18.33;62.31;100698.94;4978143;28;20034;-62
2023/05/15 10:46:06;;;;;;;39.83;25.88;;;;;;;18.33;61.13;100678.00;4980909;28;20419;-62
2023/05/15 10:48:33;;;;;;;33.53;25.20;;;;;;;18.13;60.11;100650.06;4983741;28;20030;-62
2023/05/15 10:51:01;;;;;;;34.72;24.98;;;;;;;18.52;60.77;100665.84;4983086;28;20813;-62
2023/05/15 10:53:27;;;;;;;28.10;20.42;;;;;;;18.63;57.97;100608.63;4974941;28;20080;-61
2023/05/15 10:55:52;;;;;;;28.10;20.10;;;;;;;18.76;57.49;100601.94;4973817;28;20038;-64
2023/05/15 10:58:22;;;;;;;24.17;18.48;;;;;;;18.96;57.61;100604.56;4981551;28;20551;-63
2023/05/15 11:00:48;;;;;;;23.08;17.58;;;;;;;19.17;54.76;100550.31;4982399;28;20097;-62
2023/05/15 11:03:15;;;;;;;21.08;16.13;;;;;;;19.18;54.28;100553.75;4979996;28;20042;-62
2023/05/15 11:06:14;;;;;;;24.88;16.67;;;;;;;19.22;53.68;100555.34;4980029;28;20057;-61
2023/05/15 11:08:41;;;;;;;23.95;17.63;;;;;;;19.09;55.09;100588.28;4971496;28;20054;-62